Time;durP1;ratioP1;P1;durP2;ratioP2;P2;SDS_P1;SDS_P2;PMS_P1;PMS_P2;Temp;Humidity;BMP_temperature;BMP_pressure;BME280_temperature;BME280_humidity;BME280_pressure;Samples;Min_cycle;Max_cycle;Signal;HPM_P1;HPM_P2
2022/03/22 00:00:29;;;;;;;49.55;29.10;;;6.40;99.90;;;;;;5005820;28;20053;-86
2022/03/22 00:02:56;;;;;;;45.53;25.92;;;6.30;99.90;;;;;;5007397;28;20042;-85
2022/03/22 00:05:21;;;;;;;45.90;28.60;;;6.30;99.90;;;;;;4990793;28;20061;-86
2022/03/22 00:07:47;;;;;;;48.05;39.58;;;6.30;99.90;;;;;;5075040;28;20409;-86
2022/03/22 00:10:14;;;;;;;44.13;25.75;;;6.40;99.90;;;;;;5007744;28;20588;-86
2022/03/22 00:12:42;;;;;;;49.42;40.80;;;6.30;99.90;;;;;;5032480;28;20053;-86
2022/03/22 00:15:08;;;;;;;46.75;27.42;;;6.30;99.90;;;;;;4980758;28;20088;-86
2022/03/22 00:17:34;;;;;;;43.47;26.90;;;6.20;99.90;;;;;;5006289;28;20436;-86
2022/03/22 00:20:00;;;;;;;48.88;29.30;;;6.10;99.90;;;;;;5006051;28;20038;-86
2022/03/22 00:22:27;;;;;;;46.10;28.23;;;6.10;99.90;;;;;;4990026;28;20046;-86
2022/03/22 00:24:54;;;;;;;46.35;27.25;;;6.10;99.90;;;;;;5005831;28;20046;-86
2022/03/22 00:27:19;;;;;;;39.65;26.23;;;6.00;99.90;;;;;;5006377;28;20099;-86
2022/03/22 00:29:46;;;;;;;45.90;26.77;;;6.00;99.90;;;;;;5010011;28;20045;-86
2022/03/22 00:32:12;;;;;;;44.03;25.88;;;6.00;99.90;;;;;;5006136;28;20034;-86
2022/03/22 00:34:46;;;;;;;43.60;27.17;;;6.00;99.90;;;;;;5007006;28;20053;-86
2022/03/22 00:37:15;;;;;;;42.10;25.35;;;6.00;99.90;;;;;;5006329;28;20081;-86
2022/03/22 00:39:45;;;;;;;51.10;30.50;;;5.90;99.90;;;;;;5006959;28;20484;-86
2022/03/22 00:42:11;;;;;;;48.03;28.90;;;5.90;99.90;;;;;;5007280;28;20038;-86
2022/03/22 00:44:38;;;;;;;43.47;26.10;;;6.00;99.90;;;;;;5004971;28;20042;-86
2022/03/22 00:47:07;;;;;;;46.17;27.00;;;5.90;99.90;;;;;;5007052;28;20090;-86
2022/03/22 00:49:35;;;;;;;47.92;29.80;;;5.90;99.90;;;;;;5020838;28;20183;-85
2022/03/22 00:52:04;;;;;;;50.63;26.27;;;5.90;99.90;;;;;;4991081;28;20057;-86
2022/03/22 00:54:31;;;;;;;46.05;27.42;;;5.90;99.90;;;;;;5019589;28;20134;-86
2022/03/22 00:56:56;;;;;;;45.28;28.38;;;5.90;99.90;;;;;;5008614;28;20098;-86
2022/03/22 01:02:08;;;;;;;49.47;28.02;;;6.00;99.90;;;;;;5007180;28;20054;-86
2022/03/22 01:04:35;;;;;;;50.33;31.60;;;5.80;99.90;;;;;;5007345;28;20416;-86
2022/03/22 01:07:02;;;;;;;45.42;26.88;;;5.90;99.90;;;;;;5005645;28;20042;-86
2022/03/22 01:09:28;;;;;;;46.33;27.63;;;5.90;99.90;;;;;;5015329;28;20415;-86
2022/03/22 01:11:53;;;;;;;43.92;25.85;;;5.90;99.90;;;;;;5018742;28;20417;-86
2022/03/22 01:14:19;;;;;;;40.08;23.08;;;5.90;99.90;;;;;;5025920;28;20037;-86
2022/03/22 01:16:45;;;;;;;43.78;29.42;;;5.90;99.90;;;;;;5006855;28;20125;-86
2022/03/22 01:19:10;;;;;;;42.60;24.15;;;5.90;99.90;;;;;;5007127;28;20502;-86
2022/03/22 01:21:37;;;;;;;45.92;26.60;;;5.90;99.90;;;;;;5005743;28;20099;-86
2022/03/22 01:24:06;;;;;;;39.40;24.48;;;5.80;99.90;;;;;;5006493;28;20048;-86
2022/03/22 01:26:32;;;;;;;43.75;28.05;;;5.70;99.90;;;;;;5005874;28;20045;-86
2022/03/22 01:28:58;;;;;;;42.28;27.20;;;5.70;99.90;;;;;;5009724;28;20448;-86
2022/03/22 01:31:25;;;;;;;44.83;27.77;;;5.70;99.90;;;;;;4989220;28;20154;-86
2022/03/22 01:33:51;;;;;;;43.92;27.20;;;5.70;99.90;;;;;;5005756;28;20053;-85
2022/03/22 01:36:17;;;;;;;45.08;25.52;;;5.70;99.90;;;;;;5006428;28;20407;-86
2022/03/22 01:38:43;;;;;;;44.92;26.13;;;5.70;99.90;;;;;;5004978;28;20050;-86
2022/03/22 01:41:09;;;;;;;45.50;29.20;;;5.70;99.90;;;;;;5005743;28;20490;-86
2022/03/22 01:43:34;;;;;;;44.50;27.80;;;5.60;99.90;;;;;;5012771;28;20121;-86
2022/03/22 01:46:00;;;;;;;48.75;29.63;;;5.60;99.90;;;;;;4988528;28;20052;-86
2022/03/22 01:48:25;;;;;;;46.53;28.13;;;5.60;99.90;;;;;;5008285;28;20406;-85
2022/03/22 01:50:51;;;;;;;47.72;25.95;;;5.60;99.90;;;;;;5007009;28;20081;-86
2022/03/22 01:53:17;;;;;;;38.97;24.75;;;5.50;99.90;;;;;;5025409;28;20053;-86
2022/03/22 01:55:43;;;;;;;49.38;29.73;;;5.50;99.90;;;;;;5002488;28;20045;-86
2022/03/22 01:58:08;;;;;;;54.45;30.00;;;5.50;99.90;;;;;;5010941;28;20038;-86
2022/03/22 02:00:34;;;;;;;46.63;28.25;;;5.50;99.90;;;;;;5006073;28;20391;-85
2022/03/22 02:08:16;;;;;;;43.22;26.08;;;5.40;99.90;;;;;;5006269;28;20058;-86
2022/03/22 02:10:41;;;;;;;40.72;27.48;;;5.40;99.90;;;;;;5001040;28;20103;-86
2022/03/22 02:13:07;;;;;;;43.78;26.38;;;5.40;99.90;;;;;;5009097;28;20034;-86
2022/03/22 02:15:33;;;;;;;40.72;23.13;;;5.40;99.90;;;;;;5009441;28;20034;-86
2022/03/22 02:17:59;;;;;;;44.45;25.73;;;5.30;99.90;;;;;;5007776;28;20045;-86
2022/03/22 02:20:25;;;;;;;42.03;26.58;;;5.30;99.90;;;;;;5012115;28;20034;-86
2022/03/22 02:22:50;;;;;;;43.85;26.92;;;5.30;99.90;;;;;;5018170;28;20394;-86
2022/03/22 02:25:16;;;;;;;39.22;23.55;;;5.30;99.90;;;;;;5031703;28;20049;-86
2022/03/22 02:27:48;;;;;;;45.40;28.98;;;5.20;99.90;;;;;;4997784;28;20030;-85
2022/03/22 02:30:15;;;;;;;45.40;27.05;;;5.20;99.90;;;;;;5008250;28;20179;-86
2022/03/22 02:32:54;;;;;;;40.83;23.92;;;5.10;99.90;;;;;;5007571;28;20034;-86
2022/03/22 02:35:22;;;;;;;46.40;27.58;;;5.10;99.90;;;;;;5010092;28;20034;-86
2022/03/22 02:37:48;;;;;;;39.42;22.85;;;5.10;99.90;;;;;;5008276;28;20042;-86
2022/03/22 02:40:14;;;;;;;42.45;24.17;;;5.10;99.90;;;;;;5009814;28;20088;-86
2022/03/22 02:42:45;;;;;;;43.55;25.83;;;5.10;99.90;;;;;;5009509;28;20457;-86
2022/03/22 02:45:12;;;;;;;43.42;27.52;;;5.10;99.90;;;;;;5014678;28;20045;-86
2022/03/22 02:47:40;;;;;;;44.30;27.98;;;5.10;99.90;;;;;;5005407;28;20134;-86
2022/03/22 02:50:07;;;;;;;45.63;24.58;;;5.10;99.90;;;;;;5008943;28;20410;-86
2022/03/22 02:52:33;;;;;;;39.95;25.02;;;5.00;99.90;;;;;;5007752;28;20053;-86
2022/03/22 02:55:00;;;;;;;39.67;21.63;;;5.00;99.90;;;;;;5009525;28;20097;-86
2022/03/22 02:57:25;;;;;;;42.25;25.15;;;5.00;99.90;;;;;;5012382;28;20042;-86
2022/03/22 02:59:51;;;;;;;36.67;21.10;;;5.00;99.90;;;;;;5006791;28;20044;-86
2022/03/22 03:02:16;;;;;;;36.17;23.55;;;5.00;99.90;;;;;;5007373;28;20041;-86
2022/03/22 03:04:42;;;;;;;43.17;25.10;;;4.90;99.90;;;;;;5008047;28;20041;-86
2022/03/22 03:07:08;;;;;;;40.97;23.48;;;4.90;99.90;;;;;;5007648;28;20054;-86
2022/03/22 03:09:33;;;;;;;43.30;26.27;;;4.80;99.90;;;;;;5006785;28;20046;-86
2022/03/22 03:11:59;;;;;;;40.05;22.85;;;4.90;99.90;;;;;;5008581;28;20057;-86
2022/03/22 03:14:40;;;;;;;40.17;24.33;;;4.80;99.90;;;;;;5007447;28;20121;-85
2022/03/22 03:17:14;;;;;;;43.08;23.98;;;4.90;99.90;;;;;;5008408;28;20414;-86
2022/03/22 03:19:41;;;;;;;39.63;25.02;;;4.90;99.90;;;;;;5008240;28;20046;-86
2022/03/22 03:22:08;;;;;;;39.53;22.02;;;4.90;99.90;;;;;;5007908;28;20087;-85
2022/03/22 03:24:35;;;;;;;38.72;23.00;;;4.90;99.90;;;;;;5007945;28;20038;-85
2022/03/22 03:27:02;;;;;;;39.80;23.33;;;4.90;99.90;;;;;;5008127;28;20081;-86
2022/03/22 03:29:27;;;;;;;39.33;24.20;;;4.80;99.90;;;;;;4990838;28;20417;-85
2022/03/22 03:31:53;;;;;;;38.40;23.27;;;4.90;99.90;;;;;;5007524;28;20585;-85
2022/03/22 03:34:19;;;;;;;45.50;25.50;;;4.80;99.90;;;;;;5008757;28;20038;-85
2022/03/22 03:36:46;;;;;;;42.22;23.02;;;4.90;99.90;;;;;;5007193;28;20049;-85
2022/03/22 03:39:11;;;;;;;38.85;24.48;;;4.90;99.90;;;;;;5009204;28;20030;-85
2022/03/22 03:41:53;;;;;;;37.67;23.55;;;4.90;99.90;;;;;;5008026;28;20042;-86
2022/03/22 03:47:09;;;;;;;44.42;24.92;;;4.90;99.90;;;;;;5008693;28;20410;-85
2022/03/22 03:49:42;;;;;;;41.42;24.20;;;5.00;99.90;;;;;;5009234;28;20057;-85
2022/03/22 03:52:16;;;;;;;45.40;28.55;;;5.00;99.90;;;;;;5006808;28;20618;-85
2022/03/22 03:54:42;;;;;;;44.45;25.85;;;5.10;99.90;;;;;;5007838;28;20085;-85
2022/03/22 03:57:08;;;;;;;42.25;26.10;;;5.10;99.90;;;;;;5006952;28;20049;-85
2022/03/22 03:59:34;;;;;;;41.53;25.63;;;5.10;99.90;;;;;;5007588;28;20129;-85
2022/03/22 04:02:01;;;;;;;43.33;26.70;;;5.10;99.90;;;;;;5007847;28;20448;-86
2022/03/22 04:04:27;;;;;;;43.50;25.20;;;5.10;99.90;;;;;;5008431;28;20054;-85
2022/03/22 04:06:53;;;;;;;42.65;25.60;;;5.10;99.90;;;;;;5006914;28;20045;-86
2022/03/22 04:09:18;;;;;;;43.50;26.52;;;5.20;99.90;;;;;;5008069;28;20444;-85
2022/03/22 04:11:44;;;;;;;39.45;23.95;;;5.20;99.90;;;;;;5007474;28;20046;-85
2022/03/22 04:14:10;;;;;;;41.90;24.85;;;5.10;99.90;;;;;;5008591;28;20045;-85
2022/03/22 04:16:36;;;;;;;45.47;28.15;;;5.10;99.90;;;;;;5009509;28;20045;-85
2022/03/22 04:19:04;;;;;;;45.53;28.42;;;5.10;99.90;;;;;;4997527;28;20088;-85
2022/03/22 04:21:29;;;;;;;41.85;25.08;;;5.10;99.90;;;;;;5007291;28;20046;-86
2022/03/22 04:23:55;;;;;;;43.75;27.83;;;5.10;99.90;;;;;;5007041;28;20050;-86
2022/03/22 04:26:21;;;;;;;42.28;26.17;;;5.10;99.90;;;;;;5006612;28;20498;-86
2022/03/22 04:34:15;;;;;;;43.10;25.83;;;5.00;99.90;;;;;;5009338;28;20243;-86
2022/03/22 04:36:40;;;;;;;38.67;23.08;;;5.00;99.90;;;;;;5006700;28;20042;-86
2022/03/22 04:39:06;;;;;;;42.38;25.60;;;4.90;99.90;;;;;;5007230;28;20487;-85
2022/03/22 04:41:31;;;;;;;40.03;24.73;;;4.80;99.90;;;;;;5006368;28;20046;-85
2022/03/22 04:43:57;;;;;;;41.05;26.15;;;4.80;99.90;;;;;;5009386;28;20463;-86
2022/03/22 04:46:22;;;;;;;42.08;25.67;;;4.70;99.90;;;;;;5007316;28;20040;-86
2022/03/22 04:48:48;;;;;;;41.20;22.70;;;4.70;99.90;;;;;;5005403;28;20091;-86
2022/03/22 04:56:43;;;;;;;42.40;23.95;;;4.60;99.90;;;;;;5016670;28;20077;-85
2022/03/22 04:59:09;;;;;;;44.28;24.15;;;4.60;99.90;;;;;;5009860;28;20521;-85
2022/03/22 05:01:35;;;;;;;46.30;26.77;;;4.60;99.90;;;;;;4990125;28;20089;-86
2022/03/22 05:04:00;;;;;;;41.88;24.63;;;4.60;99.90;;;;;;5031663;28;20050;-86
2022/03/22 05:06:26;;;;;;;44.08;25.20;;;4.60;99.90;;;;;;4988920;28;20053;-86
2022/03/22 05:08:55;;;;;;;46.50;28.15;;;4.60;99.90;;;;;;5007369;28;20144;-85
2022/03/22 05:11:21;;;;;;;45.63;28.48;;;4.70;99.90;;;;;;5007332;28;20465;-85
2022/03/22 05:13:47;;;;;;;43.03;25.58;;;4.70;99.90;;;;;;5006719;28;20393;-85
2022/03/22 05:16:12;;;;;;;41.67;24.70;;;4.70;99.90;;;;;;5005556;28;20053;-85
2022/03/22 05:18:38;;;;;;;45.58;26.98;;;4.70;99.90;;;;;;5004325;28;20054;-85
2022/03/22 05:21:04;;;;;;;41.63;24.83;;;4.70;99.90;;;;;;5007447;28;20045;-86
2022/03/22 05:23:36;;;;;;;44.20;26.30;;;4.70;99.90;;;;;;5007081;28;20053;-85
2022/03/22 05:26:04;;;;;;;43.15;25.85;;;4.80;99.90;;;;;;5006626;28;20090;-85
2022/03/22 05:28:30;;;;;;;45.05;26.10;;;4.80;99.90;;;;;;5006856;28;20117;-85
2022/03/22 05:30:56;;;;;;;42.10;24.92;;;4.80;99.90;;;;;;5004724;28;20121;-85
2022/03/22 05:33:22;;;;;;;42.72;24.50;;;4.80;99.90;;;;;;5015948;28;20483;-86
2022/03/22 05:35:48;;;;;;;45.83;27.63;;;4.80;99.90;;;;;;5005093;28;20562;-86
2022/03/22 05:38:14;;;;;;;42.22;25.63;;;4.80;99.90;;;;;;4989277;28;20128;-85
2022/03/22 05:40:39;;;;;;;42.55;26.20;;;4.80;99.90;;;;;;5013160;28;20071;-85
2022/03/22 05:43:06;;;;;;;44.80;26.92;;;4.80;99.90;;;;;;5013922;28;20069;-86
2022/03/22 05:45:31;;;;;;;44.80;28.98;;;4.80;99.90;;;;;;5005767;28;20058;-86
2022/03/22 05:48:00;;;;;;;45.22;28.30;;;4.80;99.90;;;;;;4987813;28;20045;-86
2022/03/22 05:50:26;;;;;;;43.92;24.95;;;4.70;99.90;;;;;;5006265;28;20041;-85
2022/03/22 05:52:52;;;;;;;45.15;28.10;;;4.80;99.90;;;;;;5004639;28;20492;-86
2022/03/22 05:55:18;;;;;;;44.15;27.90;;;4.70;99.90;;;;;;5005163;28;20045;-85
2022/03/22 05:57:43;;;;;;;39.63;25.02;;;4.70;99.90;;;;;;5006011;28;20081;-85
2022/03/22 06:00:10;;;;;;;43.83;26.23;;;4.70;99.90;;;;;;5006213;28;20311;-86
2022/03/22 06:02:37;;;;;;;43.70;26.58;;;4.70;99.90;;;;;;5005251;28;20095;-85
2022/03/22 06:05:08;;;;;;;40.28;24.70;;;4.60;99.90;;;;;;5004312;28;20130;-86
2022/03/22 06:07:37;;;;;;;42.72;24.65;;;4.70;99.90;;;;;;5004960;28;20398;-85
2022/03/22 06:10:04;;;;;;;42.95;25.38;;;4.60;99.90;;;;;;5006021;28;20482;-86
2022/03/22 06:12:39;;;;;;;39.17;25.23;;;4.60;99.90;;;;;;5006175;28;20083;-86
2022/03/22 06:15:15;;;;;;;42.15;26.85;;;4.60;99.90;;;;;;5005421;28;20054;-85
2022/03/22 06:17:46;;;;;;;42.67;24.95;;;4.60;99.90;;;;;;5020352;28;20501;-85
2022/03/22 06:20:13;;;;;;;43.95;27.48;;;4.60;99.90;;;;;;5005776;28;20046;-85
2022/03/22 06:22:38;;;;;;;43.22;25.73;;;4.70;99.90;;;;;;5006170;28;20443;-87
2022/03/22 06:25:04;;;;;;;43.03;27.30;;;4.70;99.90;;;;;;5004605;28;20054;-87
2022/03/22 06:27:30;;;;;;;42.63;26.15;;;4.80;99.90;;;;;;5005066;28;20046;-86
2022/03/22 06:29:55;;;;;;;43.17;25.55;;;4.80;99.90;;;;;;5005554;28;20379;-86
2022/03/22 06:32:21;;;;;;;46.47;26.65;;;4.80;99.90;;;;;;5004506;28;20053;-87
2022/03/22 06:34:47;;;;;;;42.70;25.17;;;4.90;99.90;;;;;;5006048;28;20042;-86
2022/03/22 06:37:13;;;;;;;42.97;28.88;;;5.00;99.90;;;;;;5005573;28;20468;-87
2022/03/22 06:39:39;;;;;;;45.08;29.40;;;5.10;99.90;;;;;;5005631;28;20042;-85
2022/03/22 06:42:05;;;;;;;44.47;29.33;;;5.20;99.90;;;;;;5004666;28;20131;-86
2022/03/22 06:44:31;;;;;;;44.63;28.40;;;5.30;99.90;;;;;;5012237;28;20063;-86
2022/03/22 06:46:56;;;;;;;44.97;27.55;;;5.40;99.90;;;;;;5001751;28;20050;-85
2022/03/22 06:49:23;;;;;;;45.20;30.15;;;5.50;99.90;;;;;;5004836;28;20049;-85
2022/03/22 06:51:49;;;;;;;43.28;30.90;;;5.60;99.90;;;;;;4996310;28;20132;-85
2022/03/22 06:54:15;;;;;;;41.65;29.30;;;5.70;99.90;;;;;;5011216;28;20124;-86
2022/03/22 06:56:41;;;;;;;46.17;28.10;;;5.80;99.90;;;;;;5025174;28;20122;-87
2022/03/22 06:59:06;;;;;;;46.67;27.58;;;5.80;99.90;;;;;;5019210;28;20041;-86
2022/03/22 07:01:32;;;;;;;45.00;29.50;;;5.90;99.90;;;;;;4990659;28;20066;-88
2022/03/22 07:03:57;;;;;;;43.53;28.77;;;6.00;99.90;;;;;;5023773;28;20508;-87
2022/03/22 07:06:23;;;;;;;42.90;30.65;;;6.20;99.90;;;;;;5029236;28;20049;-88
2022/03/22 07:08:49;;;;;;;45.80;31.02;;;6.30;99.90;;;;;;5027081;28;20049;-87
2022/03/22 07:13:58;;;;;;;42.30;31.52;;;6.50;99.90;;;;;;5016479;28;20470;-86
2022/03/22 07:16:27;;;;;;;43.60;31.05;;;6.70;99.90;;;;;;5023793;28;20073;-87
2022/03/22 07:18:53;;;;;;;46.45;30.38;;;6.80;99.90;;;;;;5000492;28;20049;-86
2022/03/22 07:21:19;;;;;;;41.97;29.50;;;6.90;99.90;;;;;;5008611;28;20429;-86
2022/03/22 07:23:44;;;;;;;41.42;28.90;;;7.00;99.90;;;;;;5006416;28;20060;-86
2022/03/22 07:26:10;;;;;;;43.30;37.95;;;7.10;99.90;;;;;;5007758;28;20481;-87
2022/03/22 07:28:36;;;;;;;44.78;38.65;;;7.30;99.90;;;;;;5007454;28;20089;-87
2022/03/22 07:31:02;;;;;;;44.10;30.13;;;7.40;99.90;;;;;;5010236;28;20049;-86
2022/03/22 07:33:28;;;;;;;39.97;28.88;;;7.60;99.90;;;;;;5005762;28;20041;-87
2022/03/22 07:35:54;;;;;;;40.50;30.77;;;7.70;99.90;;;;;;4991958;28;20054;-87
2022/03/22 07:38:19;;;;;;;41.15;36.45;;;7.80;99.90;;;;;;5011505;28;20492;-86
2022/03/22 07:40:45;;;;;;;42.65;36.33;;;7.90;99.90;;;;;;5023982;28;20054;-86
2022/03/22 07:43:10;;;;;;;40.83;30.65;;;8.00;99.90;;;;;;4988467;28;20049;-87
2022/03/22 07:45:36;;;;;;;44.00;29.58;;;8.20;99.90;;;;;;5005829;28;20095;-86
2022/03/22 07:48:03;;;;;;;40.70;28.95;;;8.20;99.90;;;;;;4997975;28;20068;-86
2022/03/22 07:53:12;;;;;;;41.60;35.30;;;8.50;99.90;;;;;;5005723;28;20046;-86
2022/03/22 07:55:40;;;;;;;38.20;33.95;;;8.60;99.90;;;;;;5006631;28;20053;-85
2022/03/22 07:58:06;;;;;;;39.70;35.40;;;8.80;99.90;;;;;;5028089;28;20038;-85
2022/03/22 08:00:37;;;;;;;42.05;34.85;;;8.90;99.90;;;;;;5025439;28;20037;-86
2022/03/22 08:03:04;;;;;;;41.38;35.80;;;9.00;99.90;;;;;;5017193;28;20085;-86
2022/03/22 08:05:32;;;;;;;38.92;34.55;;;9.10;99.90;;;;;;5008344;28;20061;-85
2022/03/22 08:07:59;;;;;;;40.42;35.05;;;9.20;99.90;;;;;;5006444;28;20406;-85
2022/03/22 08:10:25;;;;;;;43.70;34.03;;;9.30;99.90;;;;;;5007195;28;20050;-86
2022/03/22 08:12:51;;;;;;;41.58;33.97;;;9.30;99.90;;;;;;5006985;28;20050;-86
2022/03/22 08:15:17;;;;;;;39.83;33.22;;;9.50;99.90;;;;;;5007868;28;20046;-85
2022/03/22 08:17:43;;;;;;;36.47;32.25;;;9.60;99.90;;;;;;5007762;28;20057;-85
2022/03/22 08:20:10;;;;;;;37.60;32.22;;;9.70;99.90;;;;;;5006733;28;20042;-85
2022/03/22 08:22:58;;;;;;;36.47;32.22;;;9.80;99.90;;;;;;5007476;28;20042;-85
2022/03/22 08:25:26;;;;;;;38.10;31.35;;;9.90;99.90;;;;;;5006616;28;20531;-86
2022/03/22 08:27:52;;;;;;;35.92;31.50;;;10.00;99.90;;;;;;5021667;28;20041;-85
2022/03/22 08:30:20;;;;;;;37.10;31.73;;;10.10;99.90;;;;;;5027333;28;20045;-85
2022/03/22 08:32:47;;;;;;;38.67;31.23;;;10.20;99.90;;;;;;5012170;28;20068;-86
2022/03/22 08:35:13;;;;;;;35.60;31.33;;;10.30;99.90;;;;;;5006395;28;20160;-86
2022/03/22 08:37:38;;;;;;;37.40;31.65;;;10.50;99.90;;;;;;5008250;28;20053;-85
2022/03/22 08:40:06;;;;;;;35.95;30.45;;;10.60;99.90;;;;;;5007703;28;20053;-85
2022/03/22 08:42:31;;;;;;;37.05;31.02;;;10.70;99.90;;;;;;5018392;28;20051;-85
2022/03/22 08:44:57;;;;;;;36.50;30.17;;;10.80;99.90;;;;;;5021038;28;20574;-85
2022/03/22 08:47:22;;;;;;;34.10;29.67;;;10.90;99.90;;;;;;5019868;28;20045;-85
2022/03/22 08:49:49;;;;;;;36.50;30.55;;;11.00;99.90;;;;;;5012390;28;20508;-86
2022/03/22 08:52:14;;;;;;;31.73;28.00;;;11.10;99.90;;;;;;5020705;28;20105;-85
2022/03/22 08:54:40;;;;;;;33.30;28.52;;;11.30;99.90;;;;;;5010311;28;20038;-86
2022/03/22 08:57:06;;;;;;;36.42;30.25;;;11.40;99.90;;;;;;5017875;28;20561;-86
2022/03/22 08:59:31;;;;;;;31.30;27.90;;;11.50;99.90;;;;;;5007744;28;20486;-86
2022/03/22 09:01:58;;;;;;;34.40;30.48;;;11.60;99.90;;;;;;5014546;28;20053;-88
2022/03/22 09:07:08;;;;;;;34.08;28.02;;;11.90;99.90;;;;;;5007287;28;20046;-90
2022/03/22 09:09:34;;;;;;;28.90;25.23;;;12.00;99.90;;;;;;5006051;28;20521;-90
2022/03/22 09:12:00;;;;;;;31.40;25.80;;;12.10;99.90;;;;;;5007154;28;20057;-89
2022/03/22 09:14:28;;;;;;;30.02;26.52;;;12.20;99.90;;;;;;5008171;28;20042;-91
2022/03/22 09:16:53;;;;;;;31.40;27.33;;;12.30;99.90;;;;;;5008942;28;20510;-89
2022/03/22 09:19:19;;;;;;;32.40;27.02;;;12.40;99.90;;;;;;5026158;28;20038;-91
2022/03/22 09:21:44;;;;;;;32.38;26.98;;;12.50;99.90;;;;;;4986236;28;20494;-91
2022/03/22 09:24:10;;;;;;;32.13;26.52;;;12.60;99.90;;;;;;5007671;28;20417;-91
2022/03/22 09:26:35;;;;;;;31.77;27.15;;;12.80;99.90;;;;;;5012929;28;20041;-92
2022/03/22 09:29:01;;;;;;;31.40;26.48;;;12.90;99.90;;;;;;5007035;28;20049;-91
2022/03/22 09:31:27;;;;;;;31.58;27.13;;;13.00;99.90;;;;;;5014610;28;20041;-93
2022/03/22 09:33:53;;;;;;;31.05;26.55;;;13.10;99.40;;;;;;5005759;28;20252;-91
2022/03/22 09:36:19;;;;;;;30.63;25.25;;;13.20;98.40;;;;;;5007829;28;20044;-91
2022/03/22 09:38:46;;;;;;;31.40;25.05;;;13.30;94.60;;;;;;5007292;28;20054;-92
2022/03/22 09:41:16;;;;;;;28.23;24.90;;;13.40;89.50;;;;;;5006351;28;20046;-92
2022/03/22 09:43:47;;;;;;;32.95;26.92;;;13.50;85.30;;;;;;5005007;28;20124;-91
2022/03/22 09:46:20;;;;;;;31.58;26.27;;;13.60;88.00;;;;;;5005969;28;20034;-92
2022/03/22 09:48:47;;;;;;;30.13;24.58;;;13.70;88.90;;;;;;5005831;28;20095;-92
2022/03/22 09:53:58;;;;;;;30.90;26.77;;;13.90;88.10;;;;;;5025525;28;20091;-90
2022/03/22 09:56:29;;;;;;;33.53;26.95;;;14.00;90.00;;;;;;4999305;28;20046;-90
2022/03/22 09:58:55;;;;;;;31.05;26.90;;;14.10;89.60;;;;;;5007199;28;20046;-87
2022/03/22 10:01:21;;;;;;;30.25;25.30;;;14.20;87.80;;;;;;5010631;28;20066;-87
2022/03/22 10:04:00;;;;;;;32.42;26.40;;;14.30;86.70;;;;;;5017397;28;20163;-88
2022/03/22 10:06:27;;;;;;;31.23;25.63;;;14.40;82.50;;;;;;5017557;28;20050;-89
2022/03/22 10:08:52;;;;;;;30.08;25.80;;;14.50;85.40;;;;;;5003026;28;20394;-90
2022/03/22 10:11:18;;;;;;;29.13;25.98;;;14.50;83.10;;;;;;5016635;28;20057;-90
2022/03/22 10:13:57;;;;;;;30.85;26.30;;;14.70;84.90;;;;;;5011175;28;20066;-91
2022/03/22 10:16:22;;;;;;;31.52;26.17;;;14.70;84.00;;;;;;5007129;28;20128;-89
2022/03/22 10:18:48;;;;;;;32.40;25.63;;;14.80;83.40;;;;;;4992031;28;20062;-91
2022/03/22 10:21:14;;;;;;;29.27;25.40;;;14.90;80.30;;;;;;4999679;28;20079;-92
2022/03/22 10:23:51;;;;;;;32.58;26.27;;;15.10;80.60;;;;;;5007900;28;20038;-92
2022/03/22 10:26:18;;;;;;;31.42;25.58;;;15.10;80.10;;;;;;5008628;28;20394;-92
2022/03/22 10:28:52;;;;;;;33.00;26.05;;;15.20;79.70;;;;;;5007116;28;20080;-90
2022/03/22 10:31:18;;;;;;;30.27;25.10;;;15.30;79.00;;;;;;4991357;28;20046;-90
2022/03/22 10:33:53;;;;;;;31.85;25.35;;;15.40;77.70;;;;;;5009802;28;20049;-90
2022/03/22 10:36:22;;;;;;;29.58;24.63;;;15.50;77.80;;;;;;5014786;28;20042;-89
2022/03/22 10:38:59;;;;;;;27.77;24.50;;;15.60;77.10;;;;;;5008727;28;20037;-90
2022/03/22 10:41:30;;;;;;;29.08;25.85;;;15.60;76.30;;;;;;5014876;28;20050;-91
2022/03/22 10:44:05;;;;;;;30.55;25.70;;;15.60;75.90;;;;;;5017318;28;20041;-88
2022/03/22 10:46:31;;;;;;;31.83;26.58;;;15.70;76.80;;;;;;5026614;28;20386;-90
2022/03/22 10:49:11;;;;;;;31.05;26.42;;;15.80;75.60;;;;;;5015386;28;20049;-89
2022/03/22 10:51:44;;;;;;;29.73;25.35;;;15.90;74.00;;;;;;5009666;28;20050;-91
2022/03/22 10:54:17;;;;;;;29.48;24.52;;;16.00;72.40;;;;;;4992800;28;20053;-90
2022/03/22 10:56:56;;;;;;;30.65;25.80;;;16.10;73.30;;;;;;5009419;28;20049;-90
2022/03/22 10:59:27;;;;;;;29.42;24.85;;;16.10;73.20;;;;;;4992480;28;20056;-91
2022/03/22 11:01:54;;;;;;;31.03;26.07;;;16.20;72.00;;;;;;5009315;28;20050;-92
2022/03/22 11:04:19;;;;;;;29.85;24.60;;;16.20;71.30;;;;;;5008237;28;20300;-87
2022/03/22 11:06:49;;;;;;;29.17;25.25;;;16.30;71.00;;;;;;5008414;28;20053;-89
2022/03/22 11:09:24;;;;;;;27.90;24.85;;;16.40;69.40;;;;;;5011616;28;20489;-89
2022/03/22 11:11:50;;;;;;;34.67;26.42;;;16.50;69.40;;;;;;5008666;28;20106;-89
2022/03/22 11:14:18;;;;;;;30.23;24.60;;;16.60;69.10;;;;;;5008141;28;20122;-89
2022/03/22 11:16:48;;;;;;;30.88;26.20;;;16.60;69.30;;;;;;5014998;28;20409;-89
2022/03/22 11:19:16;;;;;;;28.45;24.23;;;16.70;67.80;;;;;;5023869;28;20113;-89
2022/03/22 11:21:42;;;;;;;30.15;25.42;;;16.70;68.80;;;;;;5005824;28;20042;-90
2022/03/22 11:24:10;;;;;;;30.30;25.48;;;16.80;67.70;;;;;;5009655;28;20053;-90
2022/03/22 11:26:45;;;;;;;30.13;25.38;;;16.90;68.20;;;;;;5011619;28;20103;-91
2022/03/22 11:29:13;;;;;;;31.92;26.08;;;16.90;66.70;;;;;;5010390;28;20054;-85
2022/03/22 11:31:41;;;;;;;29.50;24.88;;;17.00;66.20;;;;;;4988540;28;20052;-85
2022/03/22 11:34:09;;;;;;;32.00;25.85;;;17.10;64.90;;;;;;4989015;28;20083;-85
2022/03/22 11:36:45;;;;;;;29.02;25.27;;;17.10;66.60;;;;;;4988376;28;20436;-85
2022/03/22 11:39:19;;;;;;;32.28;26.42;;;17.20;66.40;;;;;;4988664;28;20035;-86
2022/03/22 11:44:35;;;;;;;28.05;24.15;;;17.40;66.10;;;;;;5017709;28;20549;-85
2022/03/22 11:47:08;;;;;;;29.85;24.90;;;17.50;65.80;;;;;;5026740;28;20048;-86
2022/03/22 11:49:59;;;;;;;29.33;24.70;;;17.50;64.10;;;;;;5026430;28;20045;-86
2022/03/22 11:52:35;;;;;;;29.65;24.95;;;17.60;60.80;;;;;;5028522;28;20061;-86
2022/03/22 11:55:13;;;;;;;30.48;23.77;;;17.60;63.50;;;;;;5009386;28;20078;-86
2022/03/22 11:57:50;;;;;;;29.27;24.05;;;17.70;63.60;;;;;;5006876;28;20108;-85
2022/03/22 12:00:22;;;;;;;28.27;23.23;;;17.70;63.00;;;;;;5007334;28;20379;-85
2022/03/22 12:02:53;;;;;;;27.90;22.27;;;17.80;62.70;;;;;;5006575;28;20054;-85
2022/03/22 12:05:20;;;;;;;28.38;23.00;;;17.80;62.00;;;;;;4990543;28;20041;-85
2022/03/22 12:07:47;;;;;;;27.77;23.63;;;17.90;62.40;;;;;;5009582;28;20436;-85
2022/03/22 12:10:13;;;;;;;28.73;23.20;;;17.90;61.70;;;;;;5027660;28;20042;-85
2022/03/22 12:12:41;;;;;;;30.42;23.73;;;18.00;62.10;;;;;;5027521;28;20390;-85
2022/03/22 12:15:09;;;;;;;30.70;24.20;;;18.10;61.00;;;;;;5027622;28;20049;-85
2022/03/22 12:17:36;;;;;;;30.70;23.48;;;18.10;60.90;;;;;;5009949;28;20056;-85
2022/03/22 12:20:11;;;;;;;31.92;23.05;;;18.10;59.70;;;;;;5025969;28;20087;-86
2022/03/22 12:22:41;;;;;;;29.30;21.85;;;18.20;60.10;;;;;;5024998;28;20563;-85
2022/03/22 12:25:13;;;;;;;28.73;22.05;;;18.30;59.30;;;;;;5026609;28;20046;-86
2022/03/22 12:28:09;;;;;;;27.95;22.77;;;18.30;59.80;;;;;;5010506;28;20048;-86
2022/03/22 12:30:39;;;;;;;31.05;22.75;;;18.50;57.50;;;;;;5026420;28;20061;-86
2022/03/22 12:33:09;;;;;;;28.35;22.42;;;18.50;59.70;;;;;;4997247;28;20087;-85
2022/03/22 12:35:35;;;;;;;28.43;21.50;;;18.60;59.30;;;;;;5008321;28;20065;-86
2022/03/22 12:38:02;;;;;;;28.60;21.92;;;18.70;59.30;;;;;;5011239;28;20418;-85
2022/03/22 12:40:28;;;;;;;26.15;20.67;;;18.80;59.00;;;;;;5014350;28;20053;-86
2022/03/22 12:42:55;;;;;;;26.65;21.30;;;18.80;58.30;;;;;;5010980;28;20038;-85
2022/03/22 12:45:23;;;;;;;27.75;21.55;;;18.90;58.00;;;;;;5006942;28;20124;-85
2022/03/22 12:47:50;;;;;;;26.25;20.95;;;18.90;58.20;;;;;;5014108;28;20045;-86
2022/03/22 12:50:18;;;;;;;27.23;20.75;;;19.00;57.10;;;;;;5009480;28;20054;-85
2022/03/22 12:52:44;;;;;;;26.50;21.48;;;19.00;58.10;;;;;;5027186;28;20073;-86
2022/03/22 12:55:14;;;;;;;26.83;20.80;;;19.10;57.60;;;;;;5024973;28;20117;-86
2022/03/22 12:57:44;;;;;;;27.75;20.35;;;19.00;57.40;;;;;;5008915;28;20120;-86
2022/03/22 13:00:10;;;;;;;30.23;22.45;;;19.00;57.00;;;;;;5025531;28;20072;-85
2022/03/22 13:02:39;;;;;;;26.60;20.85;;;19.10;57.00;;;;;;5024889;28;20053;-85
2022/03/22 13:05:06;;;;;;;27.40;22.02;;;19.10;57.10;;;;;;5024303;28;20460;-85
2022/03/22 13:07:33;;;;;;;27.48;21.33;;;19.10;56.90;;;;;;5026004;28;20120;-85
2022/03/22 13:12:44;;;;;;;28.15;21.48;;;19.10;56.60;;;;;;5026469;28;20110;-86